sensor_id;sensor_type;location;lat;lon;timestamp;pressure;altitude;pressure_sealevel;temperature;humidity
4814;BME280;15375;48.540;9.268;2022-12-08T00:00:37;96922.69;;;1.98;100.00
4814;BME280;15375;48.540;9.268;2022-12-08T00:03:02;96940.47;;;2.09;100.00
4814;BME280;15375;48.540;9.268;2022-12-08T00:05:28;96937.38;;;2.07;100.00
4814;BME280;15375;48.540;9.268;2022-12-08T00:08:12;96925.63;;;1.82;100.00
4814;BME280;15375;48.540;9.268;2022-12-08T00:10:56;96908.91;;;1.62;100.00
4814;BME280;15375;48.540;9.268;2022-12-08T00:13:22;96911.59;;;1.62;100.00
4814;BME280;15375;48.540;9.268;2022-12-08T00:15:47;96907.75;;;1.60;100.00
4814;BME280;15375;48.540;9.268;2022-12-08T00:18:13;96908.19;;;1.65;100.00
4814;BME280;15375;48.540;9.268;2022-12-08T00:20:38;96909.31;;;1.64;100.00
4814;BME280;15375;48.540;9.268;2022-12-08T00:23:04;96924.75;;;1.71;100.00
4814;BME280;15375;48.540;9.268;2022-12-08T00:25:30;96910.44;;;1.60;100.00
4814;BME280;15375;48.540;9.268;2022-12-08T00:27:56;96891.44;;;1.42;100.00
4814;BME280;15375;48.540;9.268;2022-12-08T00:30:21;96856.78;;;0.97;100.00
4814;BME280;15375;48.540;9.268;2022-12-08T00:32:46;96888.34;;;1.07;100.00
4814;BME280;15375;48.540;9.268;2022-12-08T00:35:12;96874.31;;;0.87;100.00
4814;BME280;15375;48.540;9.268;2022-12-08T00:37:37;96906.66;;;0.98;100.00
4814;BME280;15375;48.540;9.268;2022-12-08T00:40:03;96892.69;;;0.85;100.00
4814;BME280;15375;48.540;9.268;2022-12-08T00:42:28;96878.38;;;0.74;100.00
4814;BME280;15375;48.540;9.268;2022-12-08T00:44:54;96899.78;;;0.71;100.00
4814;BME280;15375;48.540;9.268;2022-12-08T00:47:19;96880.09;;;0.59;100.00
4814;BME280;15375;48.540;9.268;2022-12-08T00:49:44;96893.75;;;0.51;100.00
4814;BME280;15375;48.540;9.268;2022-12-08T00:52:10;96878.69;;;0.43;100.00
4814;BME280;15375;48.540;9.268;2022-12-08T00:54:36;96893.72;;;0.47;100.00
4814;BME280;15375;48.540;9.268;2022-12-08T00:57:02;96911.19;;;0.64;100.00
4814;BME280;15375;48.540;9.268;2022-12-08T00:59:27;96904.59;;;0.58;100.00
4814;BME280;15375;48.540;9.268;2022-12-08T01:01:53;96908.78;;;0.55;100.00
4814;BME280;15375;48.540;9.268;2022-12-08T01:04:18;96872.75;;;0.30;100.00
4814;BME280;15375;48.540;9.268;2022-12-08T01:06:45;96894.38;;;0.41;100.00
4814;BME280;15375;48.540;9.268;2022-12-08T01:09:12;96899.84;;;0.48;100.00
4814;BME280;15375;48.540;9.268;2022-12-08T01:11:39;96885.78;;;0.28;100.00
4814;BME280;15375;48.540;9.268;2022-12-08T01:14:04;96815.94;;;-0.31;100.00
4814;BME280;15375;48.540;9.268;2022-12-08T01:16:33;96873.19;;;0.06;100.00
4814;BME280;15375;48.540;9.268;2022-12-08T01:18:59;96907.22;;;0.28;100.00
4814;BME280;15375;48.540;9.268;2022-12-08T01:21:26;96873.56;;;0.05;100.00
4814;BME280;15375;48.540;9.268;2022-12-08T01:23:52;96874.75;;;0.07;100.00
4814;BME280;15375;48.540;9.268;2022-12-08T01:26:18;96879.22;;;-0.01;100.00
4814;BME280;15375;48.540;9.268;2022-12-08T01:28:44;96895.66;;;-0.02;100.00
4814;BME280;15375;48.540;9.268;2022-12-08T01:31:20;96889.78;;;-0.11;100.00
4814;BME280;15375;48.540;9.268;2022-12-08T01:33:46;96857.53;;;-0.37;100.00
4814;BME280;15375;48.540;9.268;2022-12-08T01:38:44;96894.00;;;-0.33;100.00
4814;BME280;15375;48.540;9.268;2022-12-08T01:41:13;96875.28;;;-0.52;100.00
4814;BME280;15375;48.540;9.268;2022-12-08T01:46:33;96894.94;;;-0.44;100.00
4814;BME280;15375;48.540;9.268;2022-12-08T01:49:06;96877.97;;;-0.52;100.00
4814;BME280;15375;48.540;9.268;2022-12-08T01:51:37;96874.81;;;-0.57;100.00
4814;BME280;15375;48.540;9.268;2022-12-08T01:54:06;96877.78;;;-0.63;100.00
4814;BME280;15375;48.540;9.268;2022-12-08T01:56:37;96896.13;;;-0.42;100.00
4814;BME280;15375;48.540;9.268;2022-12-08T01:59:06;96873.97;;;-0.61;100.00
4814;BME280;15375;48.540;9.268;2022-12-08T02:01:32;96844.41;;;-0.88;100.00
4814;BME280;15375;48.540;9.268;2022-12-08T02:04:00;96901.75;;;-0.50;100.00
4814;BME280;15375;48.540;9.268;2022-12-08T02:06:27;96881.22;;;-0.62;100.00
4814;BME280;15375;48.540;9.268;2022-12-08T02:08:55;96816.66;;;-1.21;100.00
4814;BME280;15375;48.540;9.268;2022-12-08T02:11:22;96799.13;;;-1.38;100.00
4814;BME280;15375;48.540;9.268;2022-12-08T02:13:48;96848.41;;;-1.01;100.00
4814;BME280;15375;48.540;9.268;2022-12-08T02:24:39;96887.53;;;-0.93;100.00
4814;BME280;15375;48.540;9.268;2022-12-08T02:30:19;96861.00;;;-1.20;100.00
4814;BME280;15375;48.540;9.268;2022-12-08T02:44:11;96815.44;;;-1.43;100.00
4814;BME280;15375;48.540;9.268;2022-12-08T02:46:53;96851.19;;;-1.13;100.00
4814;BME280;15375;48.540;9.268;2022-12-08T02:49:19;96813.06;;;-1.48;100.00
4814;BME280;15375;48.540;9.268;2022-12-08T02:51:45;96856.50;;;-1.16;100.00
4814;BME280;15375;48.540;9.268;2022-12-08T02:54:12;96862.34;;;-1.11;100.00
4814;BME280;15375;48.540;9.268;2022-12-08T02:56:58;96811.56;;;-1.46;100.00
4814;BME280;15375;48.540;9.268;2022-12-08T02:59:33;96843.53;;;-1.14;100.00
4814;BME280;15375;48.540;9.268;2022-12-08T03:05:17;96824.69;;;-1.21;100.00
4814;BME280;15375;48.540;9.268;2022-12-08T03:11:05;96814.97;;;-1.30;100.00
4814;BME280;15375;48.540;9.268;2022-12-08T03:13:42;96771.56;;;-1.61;100.00
4814;BME280;15375;48.540;9.268;2022-12-08T03:16:12;96797.28;;;-1.53;100.00
4814;BME280;15375;48.540;9.268;2022-12-08T03:18:44;96830.75;;;-1.44;100.00
4814;BME280;15375;48.540;9.268;2022-12-08T03:21:14;96819.13;;;-1.51;100.00
4814;BME280;15375;48.540;9.268;2022-12-08T03:23:43;96810.59;;;-1.57;100.00
4814;BME280;15375;48.540;9.268;2022-12-08T03:26:15;96819.88;;;-1.51;100.00
4814;BME280;15375;48.540;9.268;2022-12-08T03:28:42;96788.75;;;-1.78;100.00
4814;BME280;15375;48.540;9.268;2022-12-08T03:31:11;96783.63;;;-1.67;100.00
4814;BME280;15375;48.540;9.268;2022-12-08T03:33:40;96816.16;;;-1.46;100.00
4814;BME280;15375;48.540;9.268;2022-12-08T03:36:08;96804.47;;;-1.57;100.00
4814;BME280;15375;48.540;9.268;2022-12-08T03:38:40;96803.28;;;-1.60;100.00
4814;BME280;15375;48.540;9.268;2022-12-08T03:41:06;96770.84;;;-1.77;100.00
4814;BME280;15375;48.540;9.268;2022-12-08T03:43:54;96776.41;;;-1.67;100.00
4814;BME280;15375;48.540;9.268;2022-12-08T03:46:23;96774.44;;;-1.70;100.00
4814;BME280;15375;48.540;9.268;2022-12-08T03:48:49;96753.50;;;-1.83;100.00
4814;BME280;15375;48.540;9.268;2022-12-08T03:51:15;96792.94;;;-1.61;100.00
4814;BME280;15375;48.540;9.268;2022-12-08T03:53:41;96800.25;;;-1.58;100.00
4814;BME280;15375;48.540;9.268;2022-12-08T03:56:22;96778.16;;;-1.74;100.00
4814;BME280;15375;48.540;9.268;2022-12-08T03:58:48;96767.03;;;-1.76;100.00
4814;BME280;15375;48.540;9.268;2022-12-08T04:01:13;96770.41;;;-1.79;100.00
4814;BME280;15375;48.540;9.268;2022-12-08T04:03:39;96793.56;;;-1.68;100.00
4814;BME280;15375;48.540;9.268;2022-12-08T04:06:05;96783.09;;;-1.76;100.00
4814;BME280;15375;48.540;9.268;2022-12-08T04:08:31;96764.94;;;-1.86;100.00
4814;BME280;15375;48.540;9.268;2022-12-08T04:10:56;96757.47;;;-1.97;100.00
4814;BME280;15375;48.540;9.268;2022-12-08T04:13:21;96774.28;;;-1.77;100.00
4814;BME280;15375;48.540;9.268;2022-12-08T04:15:47;96766.81;;;-1.87;100.00
4814;BME280;15375;48.540;9.268;2022-12-08T04:18:14;96755.91;;;-1.98;100.00
4814;BME280;15375;48.540;9.268;2022-12-08T04:20:40;96747.19;;;-1.95;100.00
4814;BME280;15375;48.540;9.268;2022-12-08T04:23:07;96775.06;;;-1.76;100.00
4814;BME280;15375;48.540;9.268;2022-12-08T04:25:33;96770.97;;;-1.89;100.00
4814;BME280;15375;48.540;9.268;2022-12-08T04:27:58;96783.97;;;-1.88;100.00
4814;BME280;15375;48.540;9.268;2022-12-08T04:30:24;96781.56;;;-1.93;100.00
4814;BME280;15375;48.540;9.268;2022-12-08T04:32:49;96756.09;;;-2.06;100.00
4814;BME280;15375;48.540;9.268;2022-12-08T04:35:15;96757.28;;;-2.04;100.00
4814;BME280;15375;48.540;9.268;2022-12-08T04:37:40;96748.56;;;-2.01;100.00
4814;BME280;15375;48.540;9.268;2022-12-08T04:40:07;96763.38;;;-1.87;100.00
4814;BME280;15375;48.540;9.268;2022-12-08T04:42:33;96718.63;;;-2.10;100.00
4814;BME280;15375;48.540;9.268;2022-12-08T04:44:58;96748.03;;;-1.90;100.00
4814;BME280;15375;48.540;9.268;2022-12-08T04:47:24;96757.31;;;-1.84;100.00
4814;BME280;15375;48.540;9.268;2022-12-08T04:49:49;96721.03;;;-2.05;100.00
4814;BME280;15375;48.540;9.268;2022-12-08T04:52:14;96735.63;;;-1.99;100.00
4814;BME280;15375;48.540;9.268;2022-12-08T04:54:40;96676.75;;;-2.40;100.00
4814;BME280;15375;48.540;9.268;2022-12-08T04:57:05;96758.06;;;-2.03;100.00
4814;BME280;15375;48.540;9.268;2022-12-08T04:59:30;96722.81;;;-2.28;100.00
4814;BME280;15375;48.540;9.268;2022-12-08T05:01:56;96762.59;;;-2.23;100.00
4814;BME280;15375;48.540;9.268;2022-12-08T05:04:21;96741.19;;;-2.42;100.00
4814;BME280;15375;48.540;9.268;2022-12-08T05:06:47;96719.63;;;-2.68;100.00
4814;BME280;15375;48.540;9.268;2022-12-08T05:09:12;96729.84;;;-2.54;100.00
4814;BME280;15375;48.540;9.268;2022-12-08T05:11:38;96730.34;;;-2.49;100.00
4814;BME280;15375;48.540;9.268;2022-12-08T05:14:09;96762.09;;;-2.28;100.00
4814;BME280;15375;48.540;9.268;2022-12-08T05:16:36;96712.03;;;-2.66;100.00
4814;BME280;15375;48.540;9.268;2022-12-08T05:19:02;96726.66;;;-2.60;100.00
4814;BME280;15375;48.540;9.268;2022-12-08T05:21:27;96746.09;;;-2.44;100.00
4814;BME280;15375;48.540;9.268;2022-12-08T05:23:52;96725.03;;;-2.65;100.00
4814;BME280;15375;48.540;9.268;2022-12-08T05:26:18;96739.06;;;-2.52;100.00
4814;BME280;15375;48.540;9.268;2022-12-08T05:28:43;96727.50;;;-2.56;100.00
4814;BME280;15375;48.540;9.268;2022-12-08T05:31:13;96746.03;;;-2.47;100.00
4814;BME280;15375;48.540;9.268;2022-12-08T05:33:40;96753.41;;;-2.41;100.00
4814;BME280;15375;48.540;9.268;2022-12-08T05:36:06;96765.03;;;-2.33;100.00
4814;BME280;15375;48.540;9.268;2022-12-08T05:38:31;96724.94;;;-2.52;100.00
4814;BME280;15375;48.540;9.268;2022-12-08T05:40:57;96735.78;;;-2.45;100.00
4814;BME280;15375;48.540;9.268;2022-12-08T05:43:23;96759.00;;;-2.30;100.00
4814;BME280;15375;48.540;9.268;2022-12-08T05:45:48;96726.13;;;-2.50;100.00
4814;BME280;15375;48.540;9.268;2022-12-08T05:48:14;96761.59;;;-2.34;100.00
4814;BME280;15375;48.540;9.268;2022-12-08T05:50:45;96656.38;;;-2.99;100.00
4814;BME280;15375;48.540;9.268;2022-12-08T05:53:10;96731.13;;;-2.64;100.00
4814;BME280;15375;48.540;9.268;2022-12-08T05:55:35;96732.00;;;-2.60;100.00
4814;BME280;15375;48.540;9.268;2022-12-08T05:58:01;96735.63;;;-2.52;100.00
4814;BME280;15375;48.540;9.268;2022-12-08T06:00:26;96703.50;;;-2.72;100.00
4814;BME280;15375;48.540;9.268;2022-12-08T06:02:51;96727.88;;;-2.58;100.00
4814;BME280;15375;48.540;9.268;2022-12-08T06:05:17;96713.44;;;-2.72;100.00
4814;BME280;15375;48.540;9.268;2022-12-08T06:07:42;96651.56;;;-3.09;100.00
4814;BME280;15375;48.540;9.268;2022-12-08T06:10:08;96732.59;;;-2.51;100.00
4814;BME280;15375;48.540;9.268;2022-12-08T06:12:33;96682.34;;;-2.80;100.00
4814;BME280;15375;48.540;9.268;2022-12-08T06:14:59;96706.63;;;-2.70;100.00
4814;BME280;15375;48.540;9.268;2022-12-08T06:17:24;96723.06;;;-2.52;100.00
4814;BME280;15375;48.540;9.268;2022-12-08T06:19:49;96684.25;;;-2.81;100.00
4814;BME280;15375;48.540;9.268;2022-12-08T06:22:15;96713.66;;;-2.62;100.00
4814;BME280;15375;48.540;9.268;2022-12-08T06:24:40;96683.72;;;-2.86;100.00
4814;BME280;15375;48.540;9.268;2022-12-08T06:27:05;96689.25;;;-2.95;100.00
4814;BME280;15375;48.540;9.268;2022-12-08T06:29:31;96725.38;;;-2.66;100.00
4814;BME280;15375;48.540;9.268;2022-12-08T06:31:56;96744.16;;;-2.63;100.00
4814;BME280;15375;48.540;9.268;2022-12-08T06:34:21;96727.53;;;-2.72;100.00
4814;BME280;15375;48.540;9.268;2022-12-08T06:36:47;96712.03;;;-2.82;100.00
4814;BME280;15375;48.540;9.268;2022-12-08T06:39:12;96670.75;;;-3.19;100.00
4814;BME280;15375;48.540;9.268;2022-12-08T06:41:37;96766.44;;;-2.55;100.00
4814;BME280;15375;48.540;9.268;2022-12-08T06:44:23;96739.34;;;-2.73;100.00
4814;BME280;15375;48.540;9.268;2022-12-08T06:46:48;96688.66;;;-3.04;100.00
4814;BME280;15375;48.540;9.268;2022-12-08T06:49:13;96738.88;;;-2.59;100.00
4814;BME280;15375;48.540;9.268;2022-12-08T06:51:39;96735.00;;;-2.62;100.00
4814;BME280;15375;48.540;9.268;2022-12-08T06:54:04;96741.13;;;-2.45;100.00
4814;BME280;15375;48.540;9.268;2022-12-08T06:56:29;96763.13;;;-2.33;100.00
4814;BME280;15375;48.540;9.268;2022-12-08T06:58:55;96748.06;;;-2.41;100.00
4814;BME280;15375;48.540;9.268;2022-12-08T07:01:20;96725.28;;;-2.54;100.00
4814;BME280;15375;48.540;9.268;2022-12-08T07:03:46;96749.38;;;-2.35;100.00
4814;BME280;15375;48.540;9.268;2022-12-08T07:06:17;96766.38;;;-2.24;100.00
4814;BME280;15375;48.540;9.268;2022-12-08T07:08:43;96740.16;;;-2.37;100.00
4814;BME280;15375;48.540;9.268;2022-12-08T07:11:10;96765.97;;;-2.26;100.00
4814;BME280;15375;48.540;9.268;2022-12-08T07:13:35;96685.72;;;-2.83;100.00
4814;BME280;15375;48.540;9.268;2022-12-08T07:16:04;96770.03;;;-2.32;100.00
4814;BME280;15375;48.540;9.268;2022-12-08T07:18:30;96727.25;;;-2.51;100.00
4814;BME280;15375;48.540;9.268;2022-12-08T07:20:55;96736.47;;;-2.48;100.00
4814;BME280;15375;48.540;9.268;2022-12-08T07:23:20;96710.75;;;-2.72;100.00
4814;BME280;15375;48.540;9.268;2022-12-08T07:25:46;96720.41;;;-2.68;100.00
4814;BME280;15375;48.540;9.268;2022-12-08T07:28:11;96772.19;;;-2.37;100.00
4814;BME280;15375;48.540;9.268;2022-12-08T07:30:37;96687.78;;;-2.92;100.00
4814;BME280;15375;48.540;9.268;2022-12-08T07:33:03;96771.66;;;-2.27;100.00
4814;BME280;15375;48.540;9.268;2022-12-08T07:35:30;96772.59;;;-2.20;100.00
4814;BME280;15375;48.540;9.268;2022-12-08T07:37:55;96775.78;;;-2.14;100.00
4814;BME280;15375;48.540;9.268;2022-12-08T07:40:21;96745.22;;;-2.32;100.00
4814;BME280;15375;48.540;9.268;2022-12-08T07:42:47;96758.56;;;-2.17;100.00
4814;BME280;15375;48.540;9.268;2022-12-08T07:45:12;96748.56;;;-2.20;100.00
4814;BME280;15375;48.540;9.268;2022-12-08T07:47:38;96746.31;;;-2.18;100.00
4814;BME280;15375;48.540;9.268;2022-12-08T07:50:04;96760.16;;;-2.12;100.00
4814;BME280;15375;48.540;9.268;2022-12-08T07:52:29;96757.00;;;-1.99;100.00
4814;BME280;15375;48.540;9.268;2022-12-08T07:54:54;96759.09;;;-1.92;100.00
4814;BME280;15375;48.540;9.268;2022-12-08T07:57:20;96767.66;;;-1.83;100.00
4814;BME280;15375;48.540;9.268;2022-12-08T07:59:45;96774.34;;;-1.73;100.00
4814;BME280;15375;48.540;9.268;2022-12-08T08:02:15;96760.97;;;-1.73;100.00
4814;BME280;15375;48.540;9.268;2022-12-08T08:04:40;96735.59;;;-1.83;100.00
4814;BME280;15375;48.540;9.268;2022-12-08T08:07:06;96759.94;;;-1.69;100.00
4814;BME280;15375;48.540;9.268;2022-12-08T08:09:31;96736.50;;;-1.95;100.00
4814;BME280;15375;48.540;9.268;2022-12-08T08:11:56;96674.19;;;-2.37;100.00
4814;BME280;15375;48.540;9.268;2022-12-08T08:14:22;96715.69;;;-2.05;100.00
4814;BME280;15375;48.540;9.268;2022-12-08T08:16:47;96746.22;;;-1.67;100.00
4814;BME280;15375;48.540;9.268;2022-12-08T08:19:12;96743.19;;;-1.66;100.00
4814;BME280;15375;48.540;9.268;2022-12-08T08:21:39;96755.50;;;-1.61;100.00
4814;BME280;15375;48.540;9.268;2022-12-08T08:24:04;96768.66;;;-1.53;100.00
4814;BME280;15375;48.540;9.268;2022-12-08T08:26:30;96695.28;;;-1.94;100.00
4814;BME280;15375;48.540;9.268;2022-12-08T08:28:55;96759.66;;;-1.45;100.00
4814;BME280;15375;48.540;9.268;2022-12-08T08:31:25;96764.88;;;-1.52;100.00
4814;BME280;15375;48.540;9.268;2022-12-08T08:33:51;96742.72;;;-1.71;100.00
4814;BME280;15375;48.540;9.268;2022-12-08T08:36:16;96711.81;;;-1.88;100.00
4814;BME280;15375;48.540;9.268;2022-12-08T08:38:42;96690.50;;;-2.04;100.00
4814;BME280;15375;48.540;9.268;2022-12-08T08:41:09;96736.91;;;-1.73;100.00
4814;BME280;15375;48.540;9.268;2022-12-08T08:43:35;96761.81;;;-1.50;100.00
4814;BME280;15375;48.540;9.268;2022-12-08T08:46:01;96745.78;;;-1.50;100.00
4814;BME280;15375;48.540;9.268;2022-12-08T08:48:28;96762.84;;;-1.16;100.00
4814;BME280;15375;48.540;9.268;2022-12-08T08:50:55;96733.66;;;-1.02;100.00
4814;BME280;15375;48.540;9.268;2022-12-08T08:53:21;96730.78;;;-0.68;100.00
4814;BME280;15375;48.540;9.268;2022-12-08T08:55:46;96750.63;;;-0.23;100.00
4814;BME280;15375;48.540;9.268;2022-12-08T08:58:12;96744.41;;;-0.01;100.00
4814;BME280;15375;48.540;9.268;2022-12-08T09:00:37;96746.06;;;0.40;100.00
4814;BME280;15375;48.540;9.268;2022-12-08T09:03:03;96702.03;;;0.41;100.00
4814;BME280;15375;48.540;9.268;2022-12-08T09:05:28;96737.34;;;0.84;100.00
4814;BME280;15375;48.540;9.268;2022-12-08T09:07:53;96712.19;;;0.99;100.00
4814;BME280;15375;48.540;9.268;2022-12-08T09:10:19;96729.13;;;1.50;100.00
4814;BME280;15375;48.540;9.268;2022-12-08T09:12:44;96716.25;;;1.73;100.00
4814;BME280;15375;48.540;9.268;2022-12-08T09:15:10;96707.59;;;2.05;100.00
4814;BME280;15375;48.540;9.268;2022-12-08T09:17:35;96703.50;;;2.35;100.00
4814;BME280;15375;48.540;9.268;2022-12-08T09:20:03;96695.13;;;2.65;100.00
4814;BME280;15375;48.540;9.268;2022-12-08T09:22:28;96715.97;;;2.93;100.00
4814;BME280;15375;48.540;9.268;2022-12-08T09:24:56;96673.53;;;2.47;100.00
4814;BME280;15375;48.540;9.268;2022-12-08T09:27:22;96690.53;;;2.73;100.00
4814;BME280;15375;48.540;9.268;2022-12-08T09:29:47;96712.50;;;2.92;100.00
4814;BME280;15375;48.540;9.268;2022-12-08T09:32:13;96702.88;;;2.88;100.00
4814;BME280;15375;48.540;9.268;2022-12-08T09:34:38;96692.94;;;3.27;99.31
4814;BME280;15375;48.540;9.268;2022-12-08T09:37:04;96669.06;;;3.40;97.66
4814;BME280;15375;48.540;9.268;2022-12-08T09:39:29;96708.66;;;3.85;95.89
4814;BME280;15375;48.540;9.268;2022-12-08T09:42:03;96665.84;;;3.91;97.09
4814;BME280;15375;48.540;9.268;2022-12-08T09:44:53;96697.97;;;4.61;90.98
4814;BME280;15375;48.540;9.268;2022-12-08T09:47:28;96689.59;;;4.45;89.63
4814;BME280;15375;48.540;9.268;2022-12-08T09:50:17;96690.88;;;4.92;88.86
4814;BME280;15375;48.540;9.268;2022-12-08T09:52:47;96677.28;;;4.40;87.80
4814;BME280;15375;48.540;9.268;2022-12-08T09:56:24;96695.00;;;4.41;88.30
4814;BME280;15375;48.540;9.268;2022-12-08T09:58:31;96663.63;;;4.65;86.21
4814;BME280;15375;48.540;9.268;2022-12-08T10:00:59;96675.72;;;5.08;83.06
4814;BME280;15375;48.540;9.268;2022-12-08T10:03:27;96674.41;;;5.24;80.41
4814;BME280;15375;48.540;9.268;2022-12-08T10:06:20;96647.53;;;4.47;81.66
4814;BME280;15375;48.540;9.268;2022-12-08T10:17:34;96648.66;;;5.12;78.47
4814;BME280;15375;48.540;9.268;2022-12-08T10:20:34;96642.53;;;5.04;79.05
4814;BME280;15375;48.540;9.268;2022-12-08T10:23:06;96648.44;;;5.77;79.65
4814;BME280;15375;48.540;9.268;2022-12-08T10:25:51;96647.31;;;6.46;80.70
4814;BME280;15375;48.540;9.268;2022-12-08T10:28:18;96638.50;;;6.38;77.09
4814;BME280;15375;48.540;9.268;2022-12-08T10:30:43;96624.41;;;6.51;74.07
4814;BME280;15375;48.540;9.268;2022-12-08T10:33:17;96642.19;;;5.84;74.92
4814;BME280;15375;48.540;9.268;2022-12-08T10:35:52;96622.09;;;5.00;76.35
4814;BME280;15375;48.540;9.268;2022-12-08T10:38:30;96655.44;;;4.83;80.16
4814;BME280;15375;48.540;9.268;2022-12-08T10:41:05;96639.28;;;4.69;80.51
4814;BME280;15375;48.540;9.268;2022-12-08T10:43:32;96648.06;;;5.35;80.59
4814;BME280;15375;48.540;9.268;2022-12-08T10:46:10;96640.06;;;5.68;77.59
4814;BME280;15375;48.540;9.268;2022-12-08T10:48:36;96588.25;;;4.85;74.12
4814;BME280;15375;48.540;9.268;2022-12-08T10:51:22;96610.06;;;5.52;75.73
4814;BME280;15375;48.540;9.268;2022-12-08T10:53:47;96592.84;;;6.07;75.04
4814;BME280;15375;48.540;9.268;2022-12-08T10:56:16;96580.28;;;6.23;71.01
4814;BME280;15375;48.540;9.268;2022-12-08T10:58:46;96597.66;;;6.26;69.60
4814;BME280;15375;48.540;9.268;2022-12-08T11:01:19;96613.63;;;6.47;69.84
4814;BME280;15375;48.540;9.268;2022-12-08T11:03:56;96613.19;;;6.79;68.75
4814;BME280;15375;48.540;9.268;2022-12-08T11:06:36;96604.69;;;7.27;69.16
4814;BME280;15375;48.540;9.268;2022-12-08T11:14:18;96582.03;;;7.60;66.69
4814;BME280;15375;48.540;9.268;2022-12-08T11:16:48;96587.50;;;7.76;64.53
4814;BME280;15375;48.540;9.268;2022-12-08T11:19:16;96587.97;;;7.51;63.60
4814;BME280;15375;48.540;9.268;2022-12-08T11:21:42;96569.19;;;6.94;65.11
4814;BME280;15375;48.540;9.268;2022-12-08T11:26:48;96570.38;;;6.40;65.67
4814;BME280;15375;48.540;9.268;2022-12-08T11:29:14;96563.91;;;6.61;65.07
4814;BME280;15375;48.540;9.268;2022-12-08T11:31:46;96565.94;;;6.53;63.74
4814;BME280;15375;48.540;9.268;2022-12-08T11:34:29;96565.94;;;6.53;62.77
4814;BME280;15375;48.540;9.268;2022-12-08T11:36:57;96528.09;;;5.93;63.17
4814;BME280;15375;48.540;9.268;2022-12-08T11:39:25;96564.44;;;6.22;61.75
4814;BME280;15375;48.540;9.268;2022-12-08T11:41:55;96575.75;;;6.70;62.80
4814;BME280;15375;48.540;9.268;2022-12-08T11:44:41;96561.69;;;6.52;61.87
4814;BME280;15375;48.540;9.268;2022-12-08T11:47:42;96559.50;;;6.43;60.22
4814;BME280;15375;48.540;9.268;2022-12-08T11:50:19;96548.63;;;6.17;63.83
4814;BME280;15375;48.540;9.268;2022-12-08T11:52:49;96556.22;;;6.29;63.65
4814;BME280;15375;48.540;9.268;2022-12-08T11:55:42;96551.44;;;6.67;61.64
4814;BME280;15375;48.540;9.268;2022-12-08T12:00:41;96507.63;;;6.18;59.54
4814;BME280;15375;48.540;9.268;2022-12-08T12:03:21;96510.69;;;6.47;59.81
4814;BME280;15375;48.540;9.268;2022-12-08T12:06:18;96553.53;;;6.56;59.18
4814;BME280;15375;48.540;9.268;2022-12-08T12:11:48;96519.69;;;6.14;61.00
4814;BME280;15375;48.540;9.268;2022-12-08T12:20:12;96536.94;;;7.00;59.51
4814;BME280;15375;48.540;9.268;2022-12-08T12:22:41;96527.22;;;7.02;58.71
4814;BME280;15375;48.540;9.268;2022-12-08T12:25:16;96521.44;;;7.00;58.48
4814;BME280;15375;48.540;9.268;2022-12-08T12:27:43;96506.72;;;7.01;59.02
4814;BME280;15375;48.540;9.268;2022-12-08T12:30:22;96526.59;;;6.45;59.47
4814;BME280;15375;48.540;9.268;2022-12-08T12:32:57;96526.19;;;6.47;59.78
4814;BME280;15375;48.540;9.268;2022-12-08T12:35:41;96515.75;;;6.45;58.55
4814;BME280;15375;48.540;9.268;2022-12-08T12:38:19;96518.75;;;5.97;60.12
4814;BME280;15375;48.540;9.268;2022-12-08T12:41:05;96514.22;;;6.17;59.07
4814;BME280;15375;48.540;9.268;2022-12-08T12:43:33;96506.22;;;6.60;59.44
4814;BME280;15375;48.540;9.268;2022-12-08T12:46:36;96508.81;;;6.67;61.16
4814;BME280;15375;48.540;9.268;2022-12-08T13:02:37;96520.72;;;4.85;68.03
4814;BME280;15375;48.540;9.268;2022-12-08T13:05:32;96526.03;;;4.47;71.27
4814;BME280;15375;48.540;9.268;2022-12-08T13:08:05;96488.00;;;4.28;72.02
4814;BME280;15375;48.540;9.268;2022-12-08T13:10:33;96521.38;;;4.51;72.46
4814;BME280;15375;48.540;9.268;2022-12-08T13:15:36;96520.28;;;4.45;71.06
4814;BME280;15375;48.540;9.268;2022-12-08T13:18:03;96501.50;;;4.24;70.83
4814;BME280;15375;48.540;9.268;2022-12-08T13:20:29;96514.16;;;4.34;71.56
4814;BME280;15375;48.540;9.268;2022-12-08T13:23:22;96505.41;;;4.16;73.46
4814;BME280;15375;48.540;9.268;2022-12-08T13:25:51;96535.13;;;4.09;74.65
4814;BME280;15375;48.540;9.268;2022-12-08T13:28:29;96532.13;;;4.00;75.88
4814;BME280;15375;48.540;9.268;2022-12-08T13:30:57;96533.22;;;4.06;77.44
4814;BME280;15375;48.540;9.268;2022-12-08T13:33:31;96532.06;;;4.07;77.27
4814;BME280;15375;48.540;9.268;2022-12-08T13:38:35;96465.59;;;3.72;75.19
4814;BME280;15375;48.540;9.268;2022-12-08T13:41:06;96522.06;;;4.04;76.47
4814;BME280;15375;48.540;9.268;2022-12-08T13:43:44;96424.84;;;3.53;76.91
4814;BME280;15375;48.540;9.268;2022-12-08T13:46:14;96456.75;;;3.72;76.11
4814;BME280;15375;48.540;9.268;2022-12-08T13:48:52;96510.91;;;4.02;76.93
4814;BME280;15375;48.540;9.268;2022-12-08T13:51:21;96478.59;;;3.88;76.44
4814;BME280;15375;48.540;9.268;2022-12-08T13:53:58;96493.16;;;4.01;77.50
4814;BME280;15375;48.540;9.268;2022-12-08T13:56:26;96500.53;;;3.94;74.97
4814;BME280;15375;48.540;9.268;2022-12-08T14:01:42;96505.19;;;3.86;76.06
4814;BME280;15375;48.540;9.268;2022-12-08T14:04:24;96491.06;;;3.61;74.91
4814;BME280;15375;48.540;9.268;2022-12-08T14:06:56;96482.63;;;3.52;73.29
4814;BME280;15375;48.540;9.268;2022-12-08T14:09:26;96511.03;;;3.70;75.51
4814;BME280;15375;48.540;9.268;2022-12-08T14:11:59;96481.06;;;3.61;76.29
4814;BME280;15375;48.540;9.268;2022-12-08T14:14:41;96513.69;;;3.84;75.87
4814;BME280;15375;48.540;9.268;2022-12-08T14:17:12;96498.34;;;3.71;75.74
4814;BME280;15375;48.540;9.268;2022-12-08T14:19:38;96507.19;;;3.75;76.07
4814;BME280;15375;48.540;9.268;2022-12-08T14:22:15;96503.72;;;3.74;75.10
4814;BME280;15375;48.540;9.268;2022-12-08T14:24:45;96494.16;;;3.59;75.17
4814;BME280;15375;48.540;9.268;2022-12-08T14:27:15;96507.19;;;3.68;74.52
4814;BME280;15375;48.540;9.268;2022-12-08T14:29:52;96509.91;;;3.68;74.65
4814;BME280;15375;48.540;9.268;2022-12-08T14:33:03;96512.25;;;3.59;74.64
4814;BME280;15375;48.540;9.268;2022-12-08T14:37:37;96483.84;;;3.37;72.50
4814;BME280;15375;48.540;9.268;2022-12-08T14:45:30;96500.47;;;3.10;73.01
4814;BME280;15375;48.540;9.268;2022-12-08T14:48:23;96496.22;;;3.16;73.06
4814;BME280;15375;48.540;9.268;2022-12-08T14:53:39;96506.59;;;3.25;73.99